createdAt,value
2018-09-03T00:02:05.620Z,15.80
2018-09-03T00:04:34.146Z,15.80
2018-09-03T00:07:05.049Z,15.90
2018-09-03T00:09:47.735Z,15.80
2018-09-03T00:12:18.319Z,15.80
2018-09-03T00:14:56.472Z,15.80
2018-09-03T00:17:26.830Z,15.80
2018-09-03T00:23:38.778Z,15.60
2018-09-03T00:26:07.231Z,15.40
2018-09-03T00:28:35.646Z,15.60
2018-09-03T00:31:17.936Z,15.60
2018-09-03T00:33:58.637Z,15.50
2018-09-03T00:36:35.878Z,15.50
2018-09-03T00:39:18.241Z,15.70
2018-09-03T00:41:57.358Z,15.60
2018-09-03T00:44:31.120Z,15.60
2018-09-03T00:47:02.502Z,15.70
2018-09-03T00:49:33.509Z,15.70
2018-09-03T00:52:07.150Z,15.40
2018-09-03T00:54:44.673Z,15.70
2018-09-03T00:57:23.069Z,15.40
2018-09-03T00:59:58.334Z,15.50
2018-09-03T01:02:46.018Z,15.50
2018-09-03T01:05:14.466Z,15.90
2018-09-03T01:08:07.382Z,15.50
2018-09-03T01:10:52.481Z,15.50
2018-09-03T01:13:29.857Z,15.60
2018-09-03T01:16:00.549Z,15.70
2018-09-03T01:18:29.049Z,15.50
2018-09-03T01:21:03.729Z,15.50
2018-09-03T01:23:43.166Z,15.50
2018-09-03T01:26:22.271Z,15.40
2018-09-03T01:29:05.023Z,15.30
2018-09-03T01:31:45.463Z,15.40
2018-09-03T01:34:26.820Z,15.60
2018-09-03T01:36:58.061Z,15.20
2018-09-03T01:39:26.485Z,15.80
2018-09-03T01:41:55.519Z,15.40
2018-09-03T01:47:01.561Z,15.50
2018-09-03T01:49:29.987Z,15.20
2018-09-03T01:52:09.323Z,15.50
2018-09-03T01:54:50.388Z,15.70
2018-09-03T01:57:32.881Z,15.30
2018-09-03T02:00:19.515Z,15.20
2018-09-03T02:03:00.989Z,15.30
2018-09-03T02:05:30.517Z,15.50
2018-09-03T02:08:14.522Z,15.30
2018-09-03T02:10:50.177Z,15.30
2018-09-03T02:13:24.327Z,15.30
2018-09-03T02:15:53.735Z,15.20
2018-09-03T02:18:22.181Z,15.20
2018-09-03T02:20:50.631Z,15.10
2018-09-03T02:23:36.699Z,15.20
2018-09-03T02:26:12.221Z,15.00
2018-09-03T02:28:57.595Z,15.00
2018-09-03T02:31:36.667Z,15.00
2018-09-03T02:34:05.214Z,14.90
2018-09-03T02:36:34.152Z,15.00
2018-09-03T02:39:13.841Z,15.00
2018-09-03T02:41:57.105Z,15.10
2018-09-03T02:44:25.565Z,15.10
2018-09-03T02:47:02.609Z,15.30
2018-09-03T02:49:33.354Z,15.30
2018-09-03T02:52:13.239Z,15.30
2018-09-03T02:54:56.497Z,15.30
2018-09-03T02:57:33.525Z,15.10
2018-09-03T03:00:06.141Z,15.10
2018-09-03T03:02:44.401Z,15.20
2018-09-03T03:05:24.058Z,15.30
2018-09-03T03:10:36.644Z,15.20
2018-09-03T03:13:32.517Z,15.20
2018-09-03T03:16:07.501Z,15.30
2018-09-03T03:18:35.921Z,15.10
2018-09-03T03:21:06.609Z,15.00
2018-09-03T03:23:39.865Z,14.90
2018-09-03T03:26:23.171Z,14.90
2018-09-03T03:28:51.615Z,15.10
2018-09-03T03:31:20.916Z,15.10
2018-09-03T03:33:49.369Z,15.10
2018-09-03T03:36:21.969Z,15.10
2018-09-03T03:39:03.901Z,15.20
2018-09-03T03:41:42.541Z,15.30
2018-09-03T03:44:11.036Z,15.20
2018-09-03T03:46:46.607Z,15.30
2018-09-03T03:49:15.610Z,15.30
2018-09-03T03:51:47.554Z,15.40
2018-09-03T03:54:27.458Z,15.40
2018-09-03T03:57:00.032Z,15.40
2018-09-03T03:59:31.357Z,15.40
2018-09-03T04:02:12.906Z,15.50
2018-09-03T04:04:52.623Z,15.50
2018-09-03T04:07:21.058Z,15.50
2018-09-03T04:09:49.600Z,15.40
2018-09-03T04:12:18.086Z,15.30
2018-09-03T04:15:01.162Z,15.30
2018-09-03T04:17:37.669Z,15.40
2018-09-03T04:20:06.116Z,15.50
2018-09-03T04:22:34.737Z,15.50
2018-09-03T04:25:07.820Z,15.60
2018-09-03T04:27:36.283Z,15.60
2018-09-03T04:30:04.764Z,15.80
2018-09-03T04:32:39.508Z,15.70
2018-09-03T04:35:09.674Z,15.70
2018-09-03T04:37:38.078Z,15.60
2018-09-03T04:40:09.856Z,15.50
2018-09-03T04:42:39.736Z,15.80
2018-09-03T04:45:08.186Z,15.60
2018-09-03T04:47:54.347Z,15.50
2018-09-03T04:50:22.783Z,15.40
2018-09-03T04:52:51.436Z,15.40
2018-09-03T04:55:20.314Z,15.50
2018-09-03T04:57:59.191Z,15.50
2018-09-03T05:00:36.139Z,15.40
2018-09-03T05:05:46.427Z,15.50
2018-09-03T05:08:14.947Z,15.60
2018-09-03T05:10:43.481Z,15.70
2018-09-03T05:13:18.931Z,15.60
2018-09-03T05:18:24.806Z,15.80
2018-09-03T05:20:53.305Z,14.00
2018-09-03T05:23:21.749Z,15.60
2018-09-03T05:25:58.467Z,15.60
2018-09-03T05:28:26.921Z,15.70
2018-09-03T05:30:55.403Z,15.80
2018-09-03T05:33:23.847Z,15.80
2018-09-03T05:35:52.321Z,16.10
2018-09-03T05:38:20.795Z,16.00
2018-09-03T05:40:52.798Z,16.30
2018-09-03T05:43:21.446Z,16.30
2018-09-03T05:45:49.833Z,16.10
2018-09-03T05:48:18.239Z,16.10
2018-09-03T05:50:55.621Z,16.10
2018-09-03T05:53:25.735Z,16.10
2018-09-03T05:55:54.340Z,16.20
2018-09-03T05:58:23.007Z,16.20
2018-09-03T06:00:51.595Z,16.20
2018-09-03T06:03:20.068Z,16.10
2018-09-03T06:05:48.506Z,16.10
2018-09-03T06:08:17.695Z,16.20
2018-09-03T06:10:46.693Z,16.30
2018-09-03T06:13:17.911Z,16.30
2018-09-03T06:15:46.405Z,16.40
2018-09-03T06:18:19.655Z,16.30
2018-09-03T06:20:48.311Z,16.40
2018-09-03T06:23:16.788Z,16.40
2018-09-03T06:25:45.187Z,16.40
2018-09-03T06:28:13.603Z,16.30
2018-09-03T06:30:43.019Z,16.40
2018-09-03T06:33:12.578Z,16.30
2018-09-03T06:35:50.944Z,16.50
2018-09-03T06:38:21.527Z,16.60
2018-09-03T06:40:54.979Z,16.60
2018-09-03T06:43:31.762Z,16.70
2018-09-03T06:46:03.244Z,16.80
2018-09-03T06:48:34.471Z,16.80
2018-09-03T06:51:02.896Z,16.90
2018-09-03T06:53:36.878Z,16.90
2018-09-03T06:56:18.355Z,16.90
2018-09-03T06:58:57.822Z,17.00
2018-09-03T07:01:28.166Z,17.00
2018-09-03T07:04:09.773Z,17.00
2018-09-03T07:06:48.357Z,17.00
2018-09-03T07:09:19.494Z,17.10
2018-09-03T07:11:49.598Z,17.10
2018-09-03T07:14:18.117Z,17.20
2018-09-03T07:16:52.456Z,17.30
2018-09-03T07:19:23.966Z,17.40
2018-09-03T07:21:52.274Z,17.40
2018-09-03T07:24:23.091Z,17.50
2018-09-03T07:26:59.622Z,17.50
2018-09-03T07:29:42.838Z,17.60
2018-09-03T07:32:15.967Z,17.60
2018-09-03T07:34:44.487Z,17.70
2018-09-03T07:37:12.938Z,17.70
2018-09-03T07:39:41.374Z,17.70
2018-09-03T07:42:09.833Z,17.80
2018-09-03T07:44:43.000Z,17.70
2018-09-03T07:47:20.569Z,17.60
2018-09-03T07:49:52.168Z,17.50
2018-09-03T07:52:20.602Z,17.50
2018-09-03T07:54:49.032Z,17.70
2018-09-03T07:57:17.506Z,17.70
2018-09-03T07:59:46.006Z,18.10
2018-09-03T08:02:21.992Z,18.00
2018-09-03T08:05:00.925Z,18.20
2018-09-03T08:07:32.814Z,18.30
2018-09-03T08:10:13.326Z,18.40
2018-09-03T08:12:43.133Z,18.50
2018-09-03T08:15:11.573Z,18.70
2018-09-03T08:17:46.614Z,18.60
2018-09-03T08:20:25.210Z,18.70
2018-09-03T08:22:53.697Z,18.80
2018-09-03T08:25:22.234Z,18.80
2018-09-03T08:27:50.680Z,18.80
2018-09-03T08:30:27.893Z,18.80
2018-09-03T08:32:56.341Z,18.80
2018-09-03T08:35:24.869Z,19.00
2018-09-03T08:37:53.383Z,19.30
2018-09-03T08:40:21.843Z,19.20
2018-09-03T08:42:50.350Z,19.20
2018-09-03T08:45:29.661Z,19.60
2018-09-03T08:48:02.329Z,19.50
2018-09-03T08:50:30.756Z,19.60
2018-09-03T08:52:59.215Z,19.60
2018-09-03T08:55:27.623Z,19.80
2018-09-03T08:57:56.048Z,20.10
2018-09-03T09:00:24.489Z,19.90
2018-09-03T09:02:53.041Z,19.70
2018-09-03T09:05:21.439Z,19.60
2018-09-03T09:07:49.858Z,19.80
2018-09-03T09:10:18.271Z,19.60
2018-09-03T09:12:46.666Z,19.80
2018-09-03T09:15:15.117Z,19.90
2018-09-03T09:17:43.705Z,19.90
2018-09-03T09:20:12.109Z,19.60
2018-09-03T09:22:40.515Z,19.70
2018-09-03T09:25:08.909Z,19.20
2018-09-03T09:27:37.337Z,19.60
2018-09-03T09:30:06.077Z,19.50
2018-09-03T09:32:34.485Z,19.50
2018-09-03T09:35:02.880Z,19.60
2018-09-03T09:37:31.266Z,19.70
2018-09-03T09:39:59.737Z,19.80
2018-09-03T09:42:28.182Z,19.80
2018-09-03T09:44:56.588Z,19.90
2018-09-03T09:47:24.978Z,19.90
2018-09-03T09:49:53.430Z,19.80
2018-09-03T09:52:21.845Z,19.60
2018-09-03T09:54:50.295Z,19.80
2018-09-03T09:57:18.704Z,19.80
2018-09-03T09:59:47.118Z,19.70
2018-09-03T10:02:15.542Z,19.50
2018-09-03T10:04:43.962Z,19.60
2018-09-03T10:07:12.375Z,19.60
2018-09-03T10:09:40.791Z,19.70
2018-09-03T10:12:09.302Z,19.70
2018-09-03T10:14:37.792Z,20.00
2018-09-03T10:17:06.257Z,20.00
2018-09-03T10:19:34.703Z,20.10
2018-09-03T10:22:03.158Z,20.30
2018-09-03T10:24:31.632Z,20.20
2018-09-03T10:27:00.048Z,20.60
2018-09-03T10:29:28.464Z,20.70
2018-09-03T10:31:56.964Z,20.90
2018-09-03T10:34:25.342Z,20.90
2018-09-03T10:36:53.782Z,20.20
2018-09-03T10:39:22.182Z,20.10
2018-09-03T10:41:50.605Z,20.30
2018-09-03T10:44:19.020Z,20.30
2018-09-03T10:46:48.910Z,20.30
2018-09-03T10:49:18.532Z,20.50
2018-09-03T10:51:46.948Z,20.60
2018-09-03T10:54:15.368Z,20.70
2018-09-03T10:56:43.769Z,20.50
2018-09-03T10:59:12.226Z,20.60
2018-09-03T11:01:40.690Z,20.70
2018-09-03T11:04:09.108Z,20.80
2018-09-03T11:06:37.542Z,20.90
2018-09-03T11:09:08.135Z,20.90
2018-09-03T11:11:36.579Z,21.20
2018-09-03T11:14:05.169Z,21.30
2018-09-03T11:16:33.583Z,21.40
2018-09-03T11:19:01.978Z,21.40
2018-09-03T11:21:30.608Z,21.50
2018-09-03T11:23:58.885Z,21.50
2018-09-03T11:26:27.333Z,21.50
2018-09-03T11:28:55.778Z,21.50
2018-09-03T11:31:24.196Z,21.30
2018-09-03T11:33:52.639Z,21.30
2018-09-03T11:36:21.058Z,21.30
2018-09-03T11:38:49.510Z,21.30
2018-09-03T11:41:17.932Z,21.10
2018-09-03T11:43:46.374Z,20.80
2018-09-03T11:46:14.828Z,20.70
2018-09-03T11:48:43.288Z,20.70
2018-09-03T11:51:11.711Z,20.60
2018-09-03T11:53:46.464Z,20.60
2018-09-03T11:56:14.909Z,20.50
2018-09-03T11:58:43.379Z,20.40
2018-09-03T12:01:11.777Z,20.50
2018-09-03T12:03:40.300Z,20.50
2018-09-03T12:06:08.739Z,20.50
2018-09-03T12:08:37.194Z,20.60
2018-09-03T12:11:06.095Z,20.50
2018-09-03T12:13:34.492Z,21.00
2018-09-03T12:16:07.224Z,21.20
2018-09-03T12:18:35.695Z,21.40
2018-09-03T12:21:04.193Z,21.50
2018-09-03T12:23:32.856Z,21.50
2018-09-03T12:26:01.827Z,21.60
2018-09-03T12:28:30.400Z,21.80
2018-09-03T12:30:58.802Z,21.80
2018-09-03T12:33:27.219Z,21.60
2018-09-03T12:35:55.661Z,21.40
2018-09-03T12:40:52.373Z,20.80
2018-09-03T12:43:20.791Z,20.90
2018-09-03T12:45:54.665Z,20.80
2018-09-03T12:48:23.072Z,20.90
2018-09-03T12:50:51.513Z,20.80
2018-09-03T12:53:19.955Z,20.80
2018-09-03T12:55:48.487Z,20.80
2018-09-03T12:58:16.931Z,20.90
2018-09-03T13:00:45.355Z,21.10
2018-09-03T13:03:13.990Z,21.20
2018-09-03T13:05:42.373Z,21.30
2018-09-03T13:08:10.778Z,21.30
2018-09-03T13:10:39.228Z,21.40
2018-09-03T13:13:07.643Z,21.40
2018-09-03T13:15:36.123Z,21.40
2018-09-03T13:18:04.625Z,21.20
2018-09-03T13:20:33.013Z,21.20
2018-09-03T13:23:01.434Z,21.20
2018-09-03T13:25:29.853Z,21.10
2018-09-03T13:27:58.304Z,21.00
2018-09-03T13:30:26.740Z,21.00
2018-09-03T13:32:55.217Z,21.00
2018-09-03T13:35:23.654Z,20.90
2018-09-03T13:37:52.086Z,20.80
2018-09-03T13:40:20.529Z,20.90
2018-09-03T13:42:48.946Z,21.00
2018-09-03T13:45:17.354Z,20.90
2018-09-03T13:47:45.769Z,20.80
2018-09-03T13:50:14.219Z,20.70
2018-09-03T13:52:42.796Z,20.70
2018-09-03T13:55:11.270Z,20.70
2018-09-03T13:57:39.655Z,20.70
2018-09-03T14:00:09.289Z,20.70
2018-09-03T14:02:37.763Z,20.70
2018-09-03T14:05:06.402Z,20.70
2018-09-03T14:07:34.820Z,20.70
2018-09-03T14:10:03.300Z,20.60
2018-09-03T14:12:31.756Z,20.70
2018-09-03T14:17:28.631Z,20.60
2018-09-03T14:19:57.590Z,20.70
2018-09-03T14:22:26.015Z,20.60
2018-09-03T14:24:54.681Z,20.60
2018-09-03T14:27:23.131Z,20.60
2018-09-03T14:29:51.637Z,20.50
2018-09-03T14:32:20.075Z,20.50
2018-09-03T14:34:48.521Z,20.50
2018-09-03T14:37:17.013Z,20.70
2018-09-03T14:39:47.528Z,20.50
2018-09-03T14:42:16.254Z,20.40
2018-09-03T14:44:45.247Z,20.60
2018-09-03T14:47:14.757Z,20.20
2018-09-03T14:49:43.469Z,20.10
2018-09-03T14:52:11.939Z,20.10
2018-09-03T14:54:40.387Z,20.20
2018-09-03T14:57:08.842Z,20.20
2018-09-03T14:59:37.238Z,20.30
2018-09-03T15:02:05.744Z,20.30
2018-09-03T15:04:34.274Z,20.40
2018-09-03T15:07:02.679Z,20.50
2018-09-03T15:09:31.144Z,20.50
2018-09-03T15:11:59.566Z,20.50
2018-09-03T15:14:27.969Z,20.60
2018-09-03T15:16:56.385Z,20.60
2018-09-03T15:19:24.899Z,20.50
2018-09-03T15:21:53.483Z,20.40
2018-09-03T15:24:21.920Z,20.40
2018-09-03T15:26:50.388Z,20.30
2018-09-03T15:29:18.865Z,20.40
2018-09-03T15:31:47.406Z,20.30
2018-09-03T15:34:15.848Z,20.40
2018-09-03T15:36:44.401Z,20.40
2018-09-03T15:39:13.286Z,20.40
2018-09-03T15:41:42.070Z,20.30
2018-09-03T15:44:10.486Z,20.30
2018-09-03T15:46:38.891Z,20.40
2018-09-03T15:49:07.432Z,20.40
2018-09-03T15:51:35.993Z,20.40
2018-09-03T15:54:04.564Z,20.40
2018-09-03T15:56:32.998Z,20.40
2018-09-03T15:59:01.458Z,20.40
2018-09-03T16:01:29.893Z,20.40
2018-09-03T16:06:26.478Z,20.40
2018-09-03T16:08:54.919Z,20.30
2018-09-03T16:11:23.391Z,20.20
2018-09-03T16:13:51.835Z,20.20
2018-09-03T16:16:20.310Z,20.20
2018-09-03T16:18:48.869Z,20.10
2018-09-03T16:21:17.679Z,20.10
2018-09-03T16:23:46.120Z,20.40
2018-09-03T16:26:14.599Z,19.90
2018-09-03T16:28:43.092Z,19.90
2018-09-03T16:31:11.553Z,20.00
2018-09-03T16:33:40.103Z,19.90
2018-09-03T16:36:09.627Z,19.70
2018-09-03T16:38:38.199Z,19.70
2018-09-03T16:41:06.634Z,19.80
2018-09-03T16:43:35.080Z,19.70
2018-09-03T16:46:03.654Z,19.70
2018-09-03T16:48:32.207Z,19.70
2018-09-03T16:51:01.063Z,19.70
2018-09-03T16:53:29.997Z,19.70
2018-09-03T16:55:58.474Z,19.60
2018-09-03T16:58:26.947Z,19.70
2018-09-03T17:00:55.443Z,19.60
2018-09-03T17:03:23.954Z,19.70
2018-09-03T17:08:20.992Z,19.30
2018-09-03T17:10:49.501Z,19.40
2018-09-03T17:13:18.047Z,19.70
2018-09-03T17:15:46.573Z,19.60
2018-09-03T17:18:15.035Z,19.50
2018-09-03T17:20:44.192Z,19.50
2018-09-03T17:23:12.684Z,19.60
2018-09-03T17:25:41.239Z,19.50
2018-09-03T17:28:09.736Z,19.20
2018-09-03T17:30:38.281Z,19.40
2018-09-03T17:33:07.369Z,19.40
2018-09-03T17:38:04.095Z,19.20
2018-09-03T17:40:32.617Z,19.00
2018-09-03T17:43:01.372Z,19.00
2018-09-03T17:47:58.185Z,18.90
2018-09-03T17:52:54.904Z,18.60
2018-09-03T17:55:23.449Z,18.70
2018-09-03T17:57:52.075Z,18.80
2018-09-03T18:00:21.688Z,18.60
2018-09-03T18:02:50.608Z,18.80
2018-09-03T18:05:19.701Z,18.80
2018-09-03T18:07:49.465Z,18.40
2018-09-03T18:10:18.063Z,18.50
2018-09-03T18:12:47.560Z,18.40
2018-09-03T18:17:44.916Z,18.40
2018-09-03T18:20:13.987Z,18.60
2018-09-03T18:22:42.545Z,18.20
2018-09-03T18:25:11.096Z,18.40
2018-09-03T18:27:41.797Z,18.30
2018-09-03T18:32:39.282Z,18.40
2018-09-03T18:35:07.867Z,18.20
2018-09-03T18:37:36.956Z,17.90
2018-09-03T18:40:06.882Z,18.30
2018-09-03T18:42:35.961Z,18.50
2018-09-03T18:45:05.026Z,18.70
2018-09-03T18:47:34.647Z,18.30
2018-09-03T18:52:32.184Z,18.20
2018-09-03T18:55:00.954Z,18.60
2018-09-03T18:57:29.953Z,18.30
2018-09-03T18:59:58.911Z,18.50
2018-09-03T19:02:27.458Z,18.20
2018-09-03T19:04:57.046Z,18.40
2018-09-03T19:07:29.717Z,18.20
2018-09-03T19:09:59.880Z,18.20
2018-09-03T19:12:29.172Z,18.50
2018-09-03T19:17:27.969Z,18.10
2018-09-03T19:19:56.710Z,18.10
2018-09-03T19:22:25.340Z,18.40
2018-09-03T19:27:22.905Z,18.10
2018-09-03T19:29:51.943Z,17.50
2018-09-03T19:34:49.658Z,18.00
2018-09-03T19:37:18.354Z,17.90
2018-09-03T19:39:47.128Z,17.90
2018-09-03T19:42:15.704Z,17.70
2018-09-03T19:44:46.922Z,17.80
2018-09-03T19:47:15.622Z,17.80
2018-09-03T19:49:44.321Z,17.90
2018-09-03T19:52:13.416Z,17.70
2018-09-03T19:54:42.532Z,17.80
2018-09-03T19:57:13.751Z,18.10
2018-09-03T20:02:10.596Z,17.70
2018-09-03T20:04:40.044Z,17.90
2018-09-03T20:07:08.930Z,17.90
2018-09-03T20:09:37.890Z,18.00
2018-09-03T20:12:06.587Z,17.90
2018-09-03T20:14:35.314Z,17.70
2018-09-03T20:17:04.547Z,17.80
2018-09-03T20:19:33.419Z,17.90
2018-09-03T20:22:01.989Z,17.40
2018-09-03T20:24:31.283Z,17.70
2018-09-03T20:27:00.164Z,18.00
2018-09-03T20:29:28.678Z,17.90
2018-09-03T20:31:57.264Z,17.70
2018-09-03T20:39:22.971Z,17.80
2018-09-03T20:41:52.146Z,17.60
2018-09-03T20:44:20.826Z,17.60
2018-09-03T20:46:49.684Z,17.60
2018-09-03T20:51:48.298Z,17.80
2018-09-03T20:54:16.864Z,17.40
2018-09-03T20:56:46.454Z,17.50
2018-09-03T20:59:15.788Z,17.70
2018-09-03T21:01:44.681Z,17.50
2018-09-03T21:06:41.440Z,17.50
2018-09-03T21:09:09.999Z,17.40
2018-09-03T21:11:38.465Z,17.30
2018-09-03T21:14:07.721Z,17.60
2018-09-03T21:16:36.258Z,17.50
2018-09-03T21:19:04.812Z,17.30
2018-09-03T21:21:33.284Z,17.40
2018-09-03T21:26:29.935Z,16.90
2018-09-03T21:28:59.365Z,17.10
2018-09-03T21:31:27.796Z,17.10
2018-09-03T21:36:24.358Z,17.10
2018-09-03T21:38:52.823Z,17.30
2018-09-03T21:41:21.367Z,17.20
2018-09-03T21:43:50.115Z,17.40
2018-09-03T21:46:18.512Z,17.20
2018-09-03T21:48:47.011Z,17.10
2018-09-03T21:51:15.469Z,17.10
2018-09-03T21:53:43.905Z,17.10
2018-09-03T21:56:12.375Z,17.10
2018-09-03T21:58:40.809Z,17.50
2018-09-03T22:01:15.839Z,17.00
2018-09-03T22:03:44.304Z,17.30
2018-09-03T22:06:12.741Z,17.00
2018-09-03T22:11:09.349Z,17.00
2018-09-03T22:13:37.744Z,17.40
2018-09-03T22:16:07.866Z,16.90
2018-09-03T22:18:37.789Z,17.00
2018-09-03T22:21:06.521Z,16.70
2018-09-03T22:23:35.107Z,17.10
2018-09-03T22:26:03.639Z,16.70
2018-09-03T22:28:32.081Z,16.80
2018-09-03T22:31:00.547Z,16.70
2018-09-03T22:33:28.999Z,16.80
2018-09-03T22:35:57.432Z,16.50
2018-09-03T22:38:26.124Z,16.70
2018-09-03T22:43:22.739Z,16.70
2018-09-03T22:45:51.309Z,16.70
2018-09-03T22:48:19.745Z,16.60
2018-09-03T22:50:48.224Z,16.50
2018-09-03T22:53:16.696Z,16.50
2018-09-03T22:55:45.147Z,16.50
2018-09-03T22:58:13.607Z,16.50
2018-09-03T23:00:42.052Z,16.40
2018-09-03T23:03:10.502Z,16.50
2018-09-03T23:05:39.020Z,16.40
2018-09-03T23:08:07.457Z,16.60
2018-09-03T23:10:35.970Z,16.20
2018-09-03T23:13:04.408Z,16.10
2018-09-03T23:15:32.861Z,16.30
2018-09-03T23:18:01.360Z,16.20
2018-09-03T23:20:29.796Z,16.20
2018-09-03T23:25:26.414Z,16.40
2018-09-03T23:27:54.837Z,15.90
2018-09-03T23:30:23.238Z,16.10
2018-09-03T23:32:51.632Z,16.10
2018-09-03T23:35:20.031Z,16.10
2018-09-03T23:37:48.436Z,16.10
2018-09-03T23:40:16.822Z,15.80
2018-09-03T23:42:45.232Z,16.10
2018-09-03T23:45:13.598Z,16.40
2018-09-03T23:47:42.040Z,16.00
2018-09-03T23:50:10.425Z,15.80
2018-09-03T23:52:38.930Z,16.00
2018-09-03T23:55:07.483Z,16.00
2018-09-03T23:57:35.946Z,16.00
